createdAt,value
2018-06-03T00:01:49.107Z,15.86
2018-06-03T00:04:16.723Z,15.85
2018-06-03T00:06:44.300Z,15.84
2018-06-03T00:09:11.871Z,15.83
2018-06-03T00:21:00.424Z,15.71
2018-06-03T00:23:28.031Z,15.69
2018-06-03T00:25:55.651Z,15.67
2018-06-03T00:37:32.341Z,15.57
2018-06-03T00:39:59.915Z,15.56
2018-06-03T00:42:27.551Z,15.53
2018-06-03T00:54:03.878Z,15.40
2018-06-03T00:56:43.124Z,15.40
2018-06-03T00:59:10.799Z,15.37
2018-06-03T01:10:45.701Z,15.27
2018-06-03T01:13:13.326Z,15.26
2018-06-03T01:15:40.864Z,15.23
2018-06-03T01:27:17.111Z,15.15
2018-06-03T01:29:44.656Z,15.16
2018-06-03T01:32:12.218Z,15.14
2018-06-03T01:34:39.896Z,15.12
2018-06-03T01:46:16.398Z,15.01
2018-06-03T01:48:43.959Z,14.98
2018-06-03T01:51:11.563Z,14.95
2018-06-03T02:02:48.788Z,14.86
2018-06-03T02:05:16.327Z,14.85
2018-06-03T02:07:43.867Z,14.83
2018-06-03T02:19:20.103Z,14.66
2018-06-03T02:21:47.651Z,14.66
2018-06-03T02:24:15.202Z,14.67
2018-06-03T02:35:51.287Z,14.72
2018-06-03T02:38:18.901Z,14.73
2018-06-03T02:40:46.521Z,14.71
2018-06-03T02:52:12.675Z,14.69
2018-06-03T02:54:40.213Z,14.68
2018-06-03T02:57:07.773Z,14.68
2018-06-03T02:59:35.335Z,14.66
2018-06-03T03:11:12.953Z,14.59
2018-06-03T03:13:40.532Z,14.59
2018-06-03T03:16:08.095Z,14.60
2018-06-03T03:27:44.767Z,14.55
2018-06-03T03:30:12.340Z,14.50
2018-06-03T03:32:39.975Z,14.47
2018-06-03T03:44:16.239Z,14.36
2018-06-03T03:46:43.861Z,14.35
2018-06-03T03:49:11.421Z,14.34
2018-06-03T04:00:30.835Z,14.27
2018-06-03T04:02:58.359Z,14.26
2018-06-03T04:05:26.071Z,14.26
2018-06-03T04:07:53.671Z,14.26
2018-06-03T04:19:30.370Z,14.22
2018-06-03T04:21:57.926Z,14.21
2018-06-03T04:24:25.643Z,14.23
2018-06-03T04:35:43.021Z,14.24
2018-06-03T04:38:10.781Z,14.25
2018-06-03T04:40:38.379Z,14.25
2018-06-03T04:52:04.178Z,14.25
2018-06-03T04:54:31.744Z,14.26
2018-06-03T04:56:59.338Z,14.24
2018-06-03T04:59:31.527Z,14.24
2018-06-03T05:11:11.628Z,14.29
2018-06-03T05:13:39.373Z,14.32
2018-06-03T05:16:07.009Z,14.33
2018-06-03T05:27:43.067Z,14.38
2018-06-03T05:30:10.645Z,14.37
2018-06-03T05:32:38.291Z,14.39
2018-06-03T05:44:15.005Z,14.48
2018-06-03T05:46:42.645Z,14.52
2018-06-03T05:49:10.257Z,14.56
2018-06-03T06:00:46.787Z,14.72
2018-06-03T06:03:14.332Z,14.72
2018-06-03T06:05:42.025Z,14.72
2018-06-03T06:19:43.815Z,14.83
2018-06-03T06:22:11.455Z,14.86
2018-06-03T06:24:39.033Z,14.90
2018-06-03T06:36:15.337Z,15.09
2018-06-03T06:38:42.901Z,15.14
2018-06-03T06:41:10.461Z,15.20
2018-06-03T06:52:49.339Z,15.46
2018-06-03T06:55:16.933Z,15.53
2018-06-03T06:57:44.544Z,15.58
2018-06-03T07:08:50.587Z,15.81
2018-06-03T07:11:18.116Z,15.88
2018-06-03T07:13:47.504Z,15.93
2018-06-03T07:16:15.099Z,15.99
2018-06-03T07:27:20.123Z,16.29
2018-06-03T07:29:47.799Z,16.36
2018-06-03T07:32:15.341Z,16.44
2018-06-03T07:43:45.429Z,16.87
2018-06-03T07:46:12.975Z,16.98
2018-06-03T07:49:31.656Z,16.83
2018-06-03T08:01:09.004Z,17.33
2018-06-03T08:03:38.059Z,17.46
2018-06-03T08:06:07.262Z,17.55
2018-06-03T08:17:45.325Z,17.86
2018-06-03T08:20:14.355Z,17.92
2018-06-03T08:22:43.544Z,17.96
2018-06-03T08:34:14.627Z,18.19
2018-06-03T08:36:43.609Z,18.22
2018-06-03T08:39:12.659Z,18.22
2018-06-03T08:41:41.683Z,18.31
2018-06-03T08:53:01.139Z,18.55
2018-06-03T08:55:30.141Z,18.62
2018-06-03T08:57:59.229Z,18.72
2018-06-03T09:09:26.093Z,19.00
2018-06-03T09:11:56.471Z,19.14
2018-06-03T09:14:25.639Z,19.23
2018-06-03T09:27:27.814Z,19.66
2018-06-03T09:29:56.876Z,19.75
2018-06-03T09:32:26.259Z,19.84
2018-06-03T09:43:27.121Z,20.14
2018-06-03T09:46:06.278Z,20.20
2018-06-03T09:48:35.388Z,20.27
2018-06-03T10:00:02.792Z,20.58
2018-06-03T10:02:50.647Z,20.64
2018-06-03T10:05:19.623Z,20.72
2018-06-03T10:07:49.096Z,20.75
2018-06-03T10:19:26.336Z,21.10
2018-06-03T10:21:55.460Z,21.19
2018-06-03T10:24:24.726Z,21.28
2018-06-03T10:33:22.512Z,21.53
2018-06-03T10:35:52.660Z,21.62
2018-06-03T10:38:21.699Z,21.67
2018-06-03T10:40:50.806Z,21.69
2018-06-03T10:52:28.637Z,21.80
2018-06-03T10:54:57.567Z,21.88
2018-06-03T10:57:27.256Z,21.97
2018-06-03T11:10:28.837Z,22.18
2018-06-03T11:12:57.991Z,22.25
2018-06-03T11:15:27.086Z,22.31
2018-06-03T11:27:32.176Z,22.76
2018-06-03T11:30:01.611Z,22.87
2018-06-03T11:32:31.016Z,23.03
2018-06-03T11:35:24.209Z,23.18
2018-06-03T11:41:03.553Z,23.48
2018-06-03T11:43:56.318Z,23.56
2018-06-03T11:46:25.337Z,23.64
2018-06-03T11:48:54.455Z,23.75
2018-06-03T11:51:23.948Z,23.88
2018-06-03T11:54:03.133Z,24.03
2018-06-03T11:56:44.808Z,24.12
2018-06-03T11:59:24.437Z,24.21
2018-06-03T12:01:53.346Z,24.37
2018-06-03T12:04:22.146Z,24.51
2018-06-03T12:06:51.008Z,24.68
2018-06-03T12:09:20.407Z,24.85
2018-06-03T12:11:54.725Z,25.08
2018-06-03T12:14:31.615Z,25.25
2018-06-03T12:17:07.511Z,25.35
2018-06-03T12:19:36.571Z,25.43
2018-06-03T12:22:05.487Z,25.49
2018-06-03T12:24:34.407Z,25.60
2018-06-03T12:27:03.516Z,25.73
2018-06-03T12:29:35.491Z,25.68
2018-06-03T12:32:08.173Z,25.67
2018-06-03T12:34:40.048Z,25.79
2018-06-03T12:37:08.935Z,25.90
2018-06-03T12:39:37.644Z,25.99
2018-06-03T12:42:06.467Z,25.99
2018-06-03T12:44:35.751Z,25.83
2018-06-03T12:47:10.990Z,25.68
2018-06-03T12:49:42.841Z,25.77
2018-06-03T12:54:56.957Z,25.85
2018-06-03T12:57:25.854Z,25.93
2018-06-03T12:59:54.853Z,26.03
2018-06-03T13:02:27.616Z,26.12
2018-06-03T13:05:04.643Z,26.01
2018-06-03T13:07:40.495Z,25.88
2018-06-03T13:10:11.816Z,25.85
2018-06-03T13:12:40.699Z,26.01
2018-06-03T13:15:09.598Z,26.06
2018-06-03T13:18:33.955Z,25.83
2018-06-03T13:30:13.221Z,25.67
2018-06-03T13:32:42.113Z,25.57
2018-06-03T13:35:11.441Z,25.41
2018-06-03T13:39:00.257Z,25.24
2018-06-03T13:44:22.919Z,25.80
2018-06-03T13:47:04.963Z,25.74
2018-06-03T13:49:40.844Z,25.48
2018-06-03T13:52:09.701Z,25.32
2018-06-03T13:54:38.630Z,25.26
2018-06-03T14:02:47.883Z,25.92
2018-06-03T14:05:24.212Z,26.26
2018-06-03T14:07:53.129Z,26.53
2018-06-03T14:10:22.196Z,26.75
2018-06-03T14:12:51.462Z,26.96
2018-06-03T14:21:11.655Z,27.23
2018-06-03T14:23:40.754Z,27.17
2018-06-03T14:43:27.385Z,27.97
2018-06-03T14:45:56.718Z,28.05
2018-06-03T14:57:29.412Z,28.57
2018-06-03T15:01:40.368Z,28.74
2018-06-03T15:04:09.565Z,29.03
2018-06-03T15:17:06.146Z,29.33
2018-06-03T15:19:35.569Z,29.53
2018-06-03T15:22:04.815Z,29.62
2018-06-03T15:24:43.941Z,29.67
2018-06-03T15:27:18.914Z,29.77
2018-06-03T15:29:52.307Z,29.88
2018-06-03T15:38:47.384Z,30.29
2018-06-03T15:41:17.154Z,30.43
2018-06-03T15:43:51.859Z,30.53
2018-06-03T15:46:31.707Z,30.53
2018-06-03T15:49:08.515Z,30.68
2018-06-03T15:51:37.501Z,30.97
2018-06-03T15:54:06.903Z,31.19
2018-06-03T15:56:35.896Z,31.25
2018-06-03T15:59:07.968Z,31.18
2018-06-03T16:01:40.750Z,31.12
2018-06-03T16:04:15.823Z,31.04
2018-06-03T16:09:47.065Z,30.47
2018-06-03T16:12:15.979Z,30.41
2018-06-03T16:14:45.052Z,30.37
2018-06-03T16:17:20.772Z,30.01
2018-06-03T16:19:52.180Z,29.59
2018-06-03T16:22:24.545Z,29.18
2018-06-03T16:24:56.154Z,28.80
2018-06-03T16:27:25.029Z,28.50
2018-06-03T16:29:53.812Z,28.22
2018-06-03T16:32:22.743Z,27.93
2018-06-03T16:34:58.704Z,27.69
2018-06-03T16:37:28.741Z,27.41
2018-06-03T16:40:08.898Z,27.17
2018-06-03T16:42:41.225Z,26.95
2018-06-03T16:45:10.095Z,26.73
2018-06-03T16:47:39.093Z,26.58
2018-06-03T16:50:08.227Z,26.46
2018-06-03T16:52:44.522Z,26.36
2018-06-03T16:55:24.536Z,26.19
2018-06-03T16:57:56.389Z,26.10
2018-06-03T17:00:25.164Z,26.04
2018-06-03T17:02:53.929Z,25.99
2018-06-03T17:05:22.752Z,25.92
2018-06-03T17:07:51.884Z,25.86
2018-06-03T17:10:24.947Z,25.77
2018-06-03T17:12:55.015Z,25.69
2018-06-03T17:15:28.629Z,25.61
2018-06-03T17:17:58.568Z,25.51
2018-06-03T17:20:27.898Z,25.46
2018-06-03T17:22:59.321Z,25.43
2018-06-03T17:25:28.920Z,25.40
2018-06-03T17:28:03.928Z,25.41
2018-06-03T17:36:21.191Z,25.45
2018-06-03T17:38:50.357Z,25.45
2018-06-03T17:41:19.398Z,25.44
2018-06-03T17:48:11.348Z,25.39
2018-06-03T17:50:42.709Z,25.42
2018-06-03T17:53:12.027Z,25.67
2018-06-03T17:55:40.864Z,25.94
2018-06-03T17:58:09.967Z,26.43
2018-06-03T18:10:18.627Z,28.94
2018-06-03T18:12:47.513Z,29.40
2018-06-03T18:15:16.661Z,29.73
2018-06-03T18:26:54.920Z,31.31
2018-06-03T18:29:23.930Z,31.65
2018-06-03T18:31:53.031Z,31.85
2018-06-03T18:34:24.448Z,31.63
2018-06-03T18:45:51.989Z,29.74
2018-06-03T18:48:20.964Z,29.37
2018-06-03T18:50:50.081Z,29.00
2018-06-03T19:02:39.823Z,27.43
2018-06-03T19:05:08.707Z,27.20
2018-06-03T19:07:37.802Z,26.99
2018-06-03T19:19:23.149Z,25.99
2018-06-03T19:21:52.023Z,25.77
2018-06-03T19:24:22.219Z,25.59
2018-06-03T19:26:51.457Z,25.36
2018-06-03T19:29:24.971Z,25.14
2018-06-03T19:32:11.880Z,24.93
2018-06-03T19:34:51.318Z,24.68
2018-06-03T19:37:20.272Z,24.44
2018-06-03T19:39:49.154Z,24.26
2018-06-03T19:42:18.185Z,24.06
2018-06-03T19:44:47.545Z,23.88
2018-06-03T19:55:30.123Z,23.19
2018-06-03T19:57:58.953Z,23.05
2018-06-03T20:00:28.501Z,22.91
2018-06-03T20:03:12.008Z,22.79
2018-06-03T20:05:54.230Z,22.62
2018-06-03T20:11:26.167Z,22.35
2018-06-03T20:13:55.136Z,22.26
2018-06-03T20:16:24.135Z,22.17
2018-06-03T20:18:53.130Z,22.09
2018-06-03T20:29:49.799Z,21.89
2018-06-03T20:35:20.696Z,21.52
2018-06-03T20:47:36.114Z,21.26
2018-06-03T20:50:05.541Z,21.20
2018-06-03T20:52:34.650Z,21.15
2018-06-03T21:04:52.767Z,20.88
2018-06-03T21:07:21.735Z,20.84
2018-06-03T21:09:50.836Z,20.82
2018-06-03T21:15:35.009Z,20.71
2018-06-03T21:21:11.399Z,20.60
2018-06-03T21:23:40.496Z,20.54
2018-06-03T21:26:09.565Z,20.52
2018-06-03T21:28:38.805Z,20.49
2018-06-03T21:40:15.941Z,20.40
2018-06-03T21:42:44.916Z,20.37
2018-06-03T21:45:14.267Z,20.34
2018-06-03T21:56:50.809Z,20.28
2018-06-03T21:59:19.954Z,20.27
2018-06-03T22:01:49.213Z,20.24
2018-06-03T22:13:28.206Z,20.16
2018-06-03T22:15:57.656Z,20.15
2018-06-03T22:18:26.923Z,20.16
2018-06-03T22:30:04.429Z,20.10
2018-06-03T22:32:33.608Z,20.07
2018-06-03T22:35:02.605Z,20.04
2018-06-03T22:46:40.145Z,19.81
2018-06-03T22:49:09.372Z,19.79
2018-06-03T22:51:38.479Z,19.76
2018-06-03T22:54:08.668Z,19.74
2018-06-03T23:05:46.069Z,19.61
2018-06-03T23:08:15.094Z,19.55
2018-06-03T23:10:44.252Z,19.52
2018-06-03T23:22:22.320Z,19.32
2018-06-03T23:24:51.219Z,19.28
2018-06-03T23:27:20.212Z,19.25
2018-06-03T23:38:57.392Z,19.07
2018-06-03T23:41:26.572Z,19.03
2018-06-03T23:43:55.632Z,19.01
2018-06-03T23:55:33.326Z,19.00
2018-06-03T23:58:02.889Z,19.00
